Salt Lake City, Utah
Traffic Map
Current Weather Conditions
Salt Lake City, Utah
Broken Clouds
Broken Clouds

Feels Like: 6°
Wind Chill: Ceiling: 13000
Heat Index: Visibility: 10mi
Dew Point: -6° Wind: 5mph
Humidity: 39% Direction: 270° (W)
Pressure: 29.98in Gusts: 0mph
Raw Report DataKSLC 160953Z 27004KT 10SM BKN130 07/M06 A2998 RMK AO2 SLP122 T00721061
Traffic Incident Summary
Active as of:
Severity:
Category:
InformationThere was an issue retrieving the traffic information for this location. Please try a different location or try again shortly.
Advertisements
At Last! Intellicast now available for iPhone and Android